sensor_id;sensor_type;location;lat;lon;timestamp;pressure;altitude;pressure_sealevel;temperature;humidity
41688;BME280;27371;42.686;23.362;2024-03-23T00:53:15;163131.03;;;3.58;73.50
41688;BME280;27371;42.686;23.362;2024-03-23T00:55:44;163151.00;;;3.66;73.27
41688;BME280;27371;42.686;23.362;2024-03-23T00:58:09;163131.03;;;3.58;72.53
41688;BME280;27371;42.686;23.362;2024-03-23T01:03:10;163164.31;;;3.71;72.09
41688;BME280;27371;42.686;23.362;2024-03-23T01:05:35;163131.03;;;3.58;72.18
41688;BME280;27371;42.686;23.362;2024-03-23T01:08:01;163181.56;;;3.77;71.87
41688;BME280;27371;42.686;23.362;2024-03-23T01:10:27;163188.22;;;3.80;71.90
41688;BME280;27371;42.686;23.362;2024-03-23T01:12:53;163193.56;;;3.82;71.73
41688;BME280;27371;42.686;23.362;2024-03-23T01:15:18;163213.53;;;3.90;72.13
41688;BME280;27371;42.686;23.362;2024-03-23T01:17:44;163201.53;;;3.85;71.69
41688;BME280;27371;42.686;23.362;2024-03-23T01:20:09;163192.25;;;3.82;71.80
41688;BME280;27371;42.686;23.362;2024-03-23T01:22:35;163204.25;;;3.86;71.66
41688;BME280;27371;42.686;23.362;2024-03-23T01:25:01;163092.47;;;3.43;70.41
41688;BME280;27371;42.686;23.362;2024-03-23T01:27:26;162956.81;;;2.91;71.95
41688;BME280;27371;42.686;23.362;2024-03-23T01:29:52;162882.34;;;2.62;75.54
41688;BME280;27371;42.686;23.362;2024-03-23T01:32:18;162853.13;;;2.51;78.41
41688;BME280;27371;42.686;23.362;2024-03-23T01:34:44;162835.81;;;2.44;80.34
41688;BME280;27371;42.686;23.362;2024-03-23T01:37:10;162873.03;;;2.59;79.47
41688;BME280;27371;42.686;23.362;2024-03-23T01:39:35;162878.34;;;2.61;78.75
41688;BME280;27371;42.686;23.362;2024-03-23T01:42:01;162862.41;;;2.55;79.12
41688;BME280;27371;42.686;23.362;2024-03-23T01:44:27;162899.63;;;2.69;78.47
41688;BME280;27371;42.686;23.362;2024-03-23T01:46:52;162954.16;;;2.90;77.28
41688;BME280;27371;42.686;23.362;2024-03-23T01:49:18;162959.44;;;2.92;76.66
41688;BME280;27371;42.686;23.362;2024-03-23T01:51:44;162979.41;;;3.00;76.28
41688;BME280;27371;42.686;23.362;2024-03-23T01:54:10;162967.47;;;2.95;75.41
41688;BME280;27371;42.686;23.362;2024-03-23T01:56:36;162982.09;;;3.01;75.27
41688;BME280;27371;42.686;23.362;2024-03-23T01:59:02;162995.34;;;3.06;74.99
41688;BME280;27371;42.686;23.362;2024-03-23T02:01:28;162990.06;;;3.04;74.69
41688;BME280;27371;42.686;23.362;2024-03-23T02:03:54;163007.34;;;3.10;74.43
41688;BME280;27371;42.686;23.362;2024-03-23T02:06:20;162998.03;;;3.07;74.10
41688;BME280;27371;42.686;23.362;2024-03-23T02:08:46;163024.66;;;3.17;74.03
41688;BME280;27371;42.686;23.362;2024-03-23T02:11:12;163011.34;;;3.12;74.22
41688;BME280;27371;42.686;23.362;2024-03-23T02:13:38;163027.28;;;3.18;74.33
41688;BME280;27371;42.686;23.362;2024-03-23T02:16:05;163045.94;;;3.25;74.16
41688;BME280;27371;42.686;23.362;2024-03-23T02:18:30;162956.81;;;2.91;73.01
41688;BME280;27371;42.686;23.362;2024-03-23T02:20:56;162895.66;;;2.67;73.08
41688;BME280;27371;42.686;23.362;2024-03-23T02:23:21;162818.53;;;2.38;76.38
41688;BME280;27371;42.686;23.362;2024-03-23T02:25:47;162776.00;;;2.21;78.93
41688;BME280;27371;42.686;23.362;2024-03-23T02:28:12;162779.97;;;2.23;81.13
41688;BME280;27371;42.686;23.362;2024-03-23T02:30:38;162795.97;;;2.29;81.36
41688;BME280;27371;42.686;23.362;2024-03-23T02:33:04;162776.00;;;2.21;80.57
41688;BME280;27371;42.686;23.362;2024-03-23T02:35:30;162809.22;;;2.34;80.32
41688;BME280;27371;42.686;23.362;2024-03-23T02:37:55;162835.81;;;2.44;80.47
41688;BME280;27371;42.686;23.362;2024-03-23T02:40:23;162846.47;;;2.49;79.39
41688;BME280;27371;42.686;23.362;2024-03-23T02:42:49;162863.72;;;2.55;79.17
41688;BME280;27371;42.686;23.362;2024-03-23T02:45:15;162882.34;;;2.62;78.42
41688;BME280;27371;42.686;23.362;2024-03-23T02:47:40;162903.63;;;2.71;77.95
41688;BME280;27371;42.686;23.362;2024-03-23T02:50:06;162918.25;;;2.76;77.93
41688;BME280;27371;42.686;23.362;2024-03-23T02:52:32;162924.91;;;2.79;77.74
41688;BME280;27371;42.686;23.362;2024-03-23T02:54:58;162931.56;;;2.81;77.95
41688;BME280;27371;42.686;23.362;2024-03-23T02:57:23;162924.91;;;2.79;77.76
41688;BME280;27371;42.686;23.362;2024-03-23T02:59:49;162911.59;;;2.74;77.60
41688;BME280;27371;42.686;23.362;2024-03-23T03:02:15;162883.69;;;2.63;77.78
41688;BME280;27371;42.686;23.362;2024-03-23T03:04:41;162873.03;;;2.59;77.93
41688;BME280;27371;42.686;23.362;2024-03-23T03:07:07;162896.97;;;2.68;77.83
41688;BME280;27371;42.686;23.362;2024-03-23T03:09:32;162874.38;;;2.59;77.78
41688;BME280;27371;42.686;23.362;2024-03-23T03:12:01;162845.09;;;2.48;78.32
41688;BME280;27371;42.686;23.362;2024-03-23T03:14:28;162709.56;;;1.96;76.56
41688;BME280;27371;42.686;23.362;2024-03-23T03:16:53;162612.56;;;1.59;78.83
41688;BME280;27371;42.686;23.362;2024-03-23T03:19:19;162559.44;;;1.38;81.88
41688;BME280;27371;42.686;23.362;2024-03-23T03:21:45;162539.50;;;1.30;85.20
41688;BME280;27371;42.686;23.362;2024-03-23T03:24:10;162527.53;;;1.26;87.04
41688;BME280;27371;42.686;23.362;2024-03-23T03:26:36;162535.50;;;1.29;87.63
41688;BME280;27371;42.686;23.362;2024-03-23T03:29:02;162574.03;;;1.44;87.78
41688;BME280;27371;42.686;23.362;2024-03-23T03:31:28;162584.66;;;1.48;87.30
41688;BME280;27371;42.686;23.362;2024-03-23T03:33:54;162576.69;;;1.45;87.12
41688;BME280;27371;42.686;23.362;2024-03-23T03:36:19;162584.66;;;1.48;87.04
41688;BME280;27371;42.686;23.362;2024-03-23T03:38:45;162619.19;;;1.61;86.26
41688;BME280;27371;42.686;23.362;2024-03-23T03:41:11;162625.84;;;1.64;85.68
41688;BME280;27371;42.686;23.362;2024-03-23T03:43:37;162652.44;;;1.74;85.42
41688;BME280;27371;42.686;23.362;2024-03-23T03:46:03;162672.31;;;1.82;84.69
41688;BME280;27371;42.686;23.362;2024-03-23T03:48:29;162615.19;;;1.60;83.88
41688;BME280;27371;42.686;23.362;2024-03-23T03:50:55;162663.03;;;1.78;83.64
41688;BME280;27371;42.686;23.362;2024-03-23T03:53:21;162644.41;;;1.71;83.36
41688;BME280;27371;42.686;23.362;2024-03-23T03:55:47;162667.03;;;1.80;82.90
41688;BME280;27371;42.686;23.362;2024-03-23T03:58:12;162656.41;;;1.75;82.08
41688;BME280;27371;42.686;23.362;2024-03-23T04:00:38;162595.31;;;1.52;83.38
41688;BME280;27371;42.686;23.362;2024-03-23T04:03:04;162571.34;;;1.43;85.89
41688;BME280;27371;42.686;23.362;2024-03-23T04:05:29;162574.03;;;1.44;86.75
41688;BME280;27371;42.686;23.362;2024-03-23T04:07:55;162592.63;;;1.51;86.48
41688;BME280;27371;42.686;23.362;2024-03-23T04:10:21;162631.16;;;1.66;85.45
41688;BME280;27371;42.686;23.362;2024-03-23T04:12:47;162640.47;;;1.69;84.70
41688;BME280;27371;42.686;23.362;2024-03-23T04:15:12;162621.84;;;1.62;84.07
41688;BME280;27371;42.686;23.362;2024-03-23T04:17:38;162601.94;;;1.54;82.37
41688;BME280;27371;42.686;23.362;2024-03-23T04:20:05;162535.50;;;1.29;82.13
41688;BME280;27371;42.686;23.362;2024-03-23T04:22:34;162481.06;;;1.08;84.95
41688;BME280;27371;42.686;23.362;2024-03-23T04:25:00;162446.53;;;0.95;87.22
41688;BME280;27371;42.686;23.362;2024-03-23T04:27:34;162477.06;;;1.06;88.58
41688;BME280;27371;42.686;23.362;2024-03-23T04:30:00;162463.78;;;1.01;89.31
41688;BME280;27371;42.686;23.362;2024-03-23T04:32:26;162514.25;;;1.21;89.05
41688;BME280;27371;42.686;23.362;2024-03-23T04:34:52;162518.25;;;1.22;88.60
41688;BME280;27371;42.686;23.362;2024-03-23T04:37:18;162531.53;;;1.27;88.05
41688;BME280;27371;42.686;23.362;2024-03-23T04:39:43;162530.22;;;1.27;87.45
41688;BME280;27371;42.686;23.362;2024-03-23T04:42:09;162534.19;;;1.28;87.41
41688;BME280;27371;42.686;23.362;2024-03-23T04:44:34;162539.50;;;1.30;86.60
41688;BME280;27371;42.686;23.362;2024-03-23T04:47:01;162591.28;;;1.50;86.08
41688;BME280;27371;42.686;23.362;2024-03-23T04:49:26;162600.56;;;1.54;84.88
41688;BME280;27371;42.686;23.362;2024-03-23T04:51:52;162608.53;;;1.57;84.57
41688;BME280;27371;42.686;23.362;2024-03-23T04:54:18;162611.22;;;1.58;84.46
41688;BME280;27371;42.686;23.362;2024-03-23T04:56:43;162663.03;;;1.78;84.16
41688;BME280;27371;42.686;23.362;2024-03-23T04:59:09;162675.00;;;1.83;83.24
41688;BME280;27371;42.686;23.362;2024-03-23T05:01:34;162738.81;;;2.07;82.83
41688;BME280;27371;42.686;23.362;2024-03-23T05:04:00;162825.19;;;2.40;82.30
41688;BME280;27371;42.686;23.362;2024-03-23T05:06:26;162994.03;;;3.05;81.17
41688;BME280;27371;42.686;23.362;2024-03-23T05:08:52;163177.63;;;3.76;78.53
41688;BME280;27371;42.686;23.362;2024-03-23T05:11:18;163363.94;;;4.47;75.61
41688;BME280;27371;42.686;23.362;2024-03-23T05:13:44;163465.09;;;4.86;72.45
41688;BME280;27371;42.686;23.362;2024-03-23T05:16:09;163582.28;;;5.31;68.08
41688;BME280;27371;42.686;23.362;2024-03-23T05:18:35;163533.00;;;5.12;64.88
41688;BME280;27371;42.686;23.362;2024-03-23T05:21:01;163453.09;;;4.82;65.89
41688;BME280;27371;42.686;23.362;2024-03-23T05:23:28;163454.44;;;4.82;67.05
41688;BME280;27371;42.686;23.362;2024-03-23T05:25:54;163435.81;;;4.75;67.64
41688;BME280;27371;42.686;23.362;2024-03-23T05:28:22;163475.75;;;4.90;66.98
41688;BME280;27371;42.686;23.362;2024-03-23T05:30:54;163483.78;;;4.94;66.73
41688;BME280;27371;42.686;23.362;2024-03-23T05:33:20;163474.41;;;4.90;66.30
41688;BME280;27371;42.686;23.362;2024-03-23T05:35:46;163506.41;;;5.02;66.38
41688;BME280;27371;42.686;23.362;2024-03-23T05:38:13;163623.59;;;5.47;65.55
41688;BME280;27371;42.686;23.362;2024-03-23T05:40:39;163708.84;;;5.80;63.98
41688;BME280;27371;42.686;23.362;2024-03-23T05:43:08;163783.50;;;6.09;62.86
41688;BME280;27371;42.686;23.362;2024-03-23T05:45:34;163792.88;;;6.12;61.89
41688;BME280;27371;42.686;23.362;2024-03-23T05:48:00;163830.16;;;6.27;61.65
41688;BME280;27371;42.686;23.362;2024-03-23T05:50:25;163895.47;;;6.52;60.46
41688;BME280;27371;42.686;23.362;2024-03-23T05:52:51;163923.47;;;6.62;59.14
41688;BME280;27371;42.686;23.362;2024-03-23T05:55:16;163952.78;;;6.74;59.34
41688;BME280;27371;42.686;23.362;2024-03-23T05:57:42;164012.78;;;6.97;58.52
41688;BME280;27371;42.686;23.362;2024-03-23T06:00:08;163948.78;;;6.72;58.27
41688;BME280;27371;42.686;23.362;2024-03-23T06:02:44;164016.78;;;6.98;57.71
41688;BME280;27371;42.686;23.362;2024-03-23T06:05:11;164107.44;;;7.33;56.84
41688;BME280;27371;42.686;23.362;2024-03-23T06:07:37;164124.81;;;7.40;55.90
41688;BME280;27371;42.686;23.362;2024-03-23T06:10:03;164055.44;;;7.13;55.81
41688;BME280;27371;42.686;23.362;2024-03-23T06:12:29;163884.78;;;6.47;57.55
41688;BME280;27371;42.686;23.362;2024-03-23T06:14:54;163936.81;;;6.67;58.05
41688;BME280;27371;42.686;23.362;2024-03-23T06:17:20;163894.16;;;6.51;58.30
41688;BME280;27371;42.686;23.362;2024-03-23T06:19:46;163894.16;;;6.51;58.35
41688;BME280;27371;42.686;23.362;2024-03-23T06:22:12;163912.78;;;6.58;57.59
41688;BME280;27371;42.686;23.362;2024-03-23T06:24:37;163860.81;;;6.38;58.19
41688;BME280;27371;42.686;23.362;2024-03-23T06:27:04;163927.44;;;6.64;58.63
41688;BME280;27371;42.686;23.362;2024-03-23T06:29:30;164042.09;;;7.08;57.91
41688;BME280;27371;42.686;23.362;2024-03-23T06:31:55;164143.44;;;7.47;56.50
41688;BME280;27371;42.686;23.362;2024-03-23T06:34:21;164232.84;;;7.81;56.14
41688;BME280;27371;42.686;23.362;2024-03-23T06:36:48;164331.59;;;8.19;54.59
41688;BME280;27371;42.686;23.362;2024-03-23T06:39:15;164311.56;;;8.11;54.06
41688;BME280;27371;42.686;23.362;2024-03-23T06:41:53;164303.56;;;8.08;53.55
41688;BME280;27371;42.686;23.362;2024-03-23T06:44:20;164393.00;;;8.42;52.90
41688;BME280;27371;42.686;23.362;2024-03-23T06:46:46;164407.69;;;8.48;52.72
41688;BME280;27371;42.686;23.362;2024-03-23T06:49:12;164386.31;;;8.40;53.55
41688;BME280;27371;42.686;23.362;2024-03-23T06:51:37;164407.69;;;8.48;53.59
41688;BME280;27371;42.686;23.362;2024-03-23T06:54:03;164473.06;;;8.73;52.81
41688;BME280;27371;42.686;23.362;2024-03-23T06:56:30;164433.06;;;8.58;52.27
41688;BME280;27371;42.686;23.362;2024-03-23T06:58:56;164473.06;;;8.73;52.52
41688;BME280;27371;42.686;23.362;2024-03-23T07:01:22;164498.47;;;8.83;52.43
41688;BME280;27371;42.686;23.362;2024-03-23T07:03:47;164489.09;;;8.79;52.28
41688;BME280;27371;42.686;23.362;2024-03-23T07:06:13;164479.75;;;8.76;52.46
41688;BME280;27371;42.686;23.362;2024-03-23T07:08:48;164489.09;;;8.79;51.95
41688;BME280;27371;42.686;23.362;2024-03-23T07:11:20;164470.44;;;8.72;52.33
41688;BME280;27371;42.686;23.362;2024-03-23T07:13:46;164475.78;;;8.74;52.06
41688;BME280;27371;42.686;23.362;2024-03-23T07:16:13;164499.78;;;8.83;51.81
41688;BME280;27371;42.686;23.362;2024-03-23T07:18:38;164510.44;;;8.87;51.93
41688;BME280;27371;42.686;23.362;2024-03-23T07:21:04;164553.16;;;9.04;51.42
41688;BME280;27371;42.686;23.362;2024-03-23T07:23:32;164606.59;;;9.24;50.67
41688;BME280;27371;42.686;23.362;2024-03-23T07:25:58;164694.72;;;9.58;49.79
41688;BME280;27371;42.686;23.362;2024-03-23T07:28:23;164761.50;;;9.84;48.65
41688;BME280;27371;42.686;23.362;2024-03-23T07:31:01;164733.44;;;9.73;48.58
41688;BME280;27371;42.686;23.362;2024-03-23T07:33:27;164674.69;;;9.50;49.37
41688;BME280;27371;42.686;23.362;2024-03-23T07:35:53;164716.09;;;9.66;49.92
41688;BME280;27371;42.686;23.362;2024-03-23T07:38:19;164805.56;;;10.00;49.61
41688;BME280;27371;42.686;23.362;2024-03-23T07:40:44;164889.81;;;10.33;48.87
41688;BME280;27371;42.686;23.362;2024-03-23T07:43:10;164880.47;;;10.29;48.16
41688;BME280;27371;42.686;23.362;2024-03-23T07:45:35;164888.47;;;10.32;48.12
41688;BME280;27371;42.686;23.362;2024-03-23T07:48:03;164921.91;;;10.45;48.11
41688;BME280;27371;42.686;23.362;2024-03-23T07:50:29;164990.03;;;10.71;48.02
41688;BME280;27371;42.686;23.362;2024-03-23T07:52:55;165026.09;;;10.85;47.20
41688;BME280;27371;42.686;23.362;2024-03-23T07:55:20;165032.81;;;10.87;46.09
41688;BME280;27371;42.686;23.362;2024-03-23T07:57:46;165050.16;;;10.94;45.99
41688;BME280;27371;42.686;23.362;2024-03-23T08:00:12;165094.31;;;11.11;45.71
41688;BME280;27371;42.686;23.362;2024-03-23T08:02:38;165127.69;;;11.24;44.89
41688;BME280;27371;42.686;23.362;2024-03-23T08:05:04;165114.31;;;11.19;44.93
41688;BME280;27371;42.686;23.362;2024-03-23T08:07:30;165028.75;;;10.86;44.96
41688;BME280;27371;42.686;23.362;2024-03-23T08:09:55;164979.34;;;10.67;46.54
41688;BME280;27371;42.686;23.362;2024-03-23T08:12:21;165007.38;;;10.78;45.82
41688;BME280;27371;42.686;23.362;2024-03-23T08:14:47;164975.34;;;10.65;45.86
41688;BME280;27371;42.686;23.362;2024-03-23T08:17:12;165031.47;;;10.87;45.52
41688;BME280;27371;42.686;23.362;2024-03-23T08:19:38;165023.47;;;10.84;45.52
41688;BME280;27371;42.686;23.362;2024-03-23T08:22:03;165096.97;;;11.12;51.73
41688;BME280;27371;42.686;23.362;2024-03-23T08:24:29;165142.41;;;11.29;44.87
41688;BME280;27371;42.686;23.362;2024-03-23T08:26:55;165122.34;;;11.22;45.22
41688;BME280;27371;42.686;23.362;2024-03-23T08:29:21;165190.53;;;11.48;44.27
41688;BME280;27371;42.686;23.362;2024-03-23T08:31:46;165284.16;;;11.84;43.60
41688;BME280;27371;42.686;23.362;2024-03-23T08:34:12;165253.41;;;11.72;43.10
41688;BME280;27371;42.686;23.362;2024-03-23T08:36:37;165217.31;;;11.58;43.13
41688;BME280;27371;42.686;23.362;2024-03-23T08:39:03;165221.28;;;11.59;42.11
41688;BME280;27371;42.686;23.362;2024-03-23T08:41:29;165206.59;;;11.54;42.99
41688;BME280;27371;42.686;23.362;2024-03-23T08:43:54;165238.69;;;11.66;42.92
41688;BME280;27371;42.686;23.362;2024-03-23T08:46:20;165262.75;;;11.75;41.93
41688;BME280;27371;42.686;23.362;2024-03-23T08:48:46;165262.75;;;11.75;42.59
41688;BME280;27371;42.686;23.362;2024-03-23T08:51:15;165327.00;;;12.00;42.37
41688;BME280;27371;42.686;23.362;2024-03-23T08:53:41;165368.47;;;12.16;41.16
41688;BME280;27371;42.686;23.362;2024-03-23T08:56:08;165387.16;;;12.23;40.87
41688;BME280;27371;42.686;23.362;2024-03-23T08:58:35;165405.91;;;12.30;40.86
41688;BME280;27371;42.686;23.362;2024-03-23T09:01:09;165401.88;;;12.29;40.44
41688;BME280;27371;42.686;23.362;2024-03-23T09:03:35;165400.56;;;12.28;41.23
41688;BME280;27371;42.686;23.362;2024-03-23T09:06:02;165383.19;;;12.21;41.55
41688;BME280;27371;42.686;23.362;2024-03-23T09:08:31;165365.78;;;12.15;41.36
41688;BME280;27371;42.686;23.362;2024-03-23T09:10:57;165368.47;;;12.16;41.83
41688;BME280;27371;42.686;23.362;2024-03-23T09:13:22;165409.91;;;12.32;41.83
41688;BME280;27371;42.686;23.362;2024-03-23T09:15:49;165503.56;;;12.67;41.01
41688;BME280;27371;42.686;23.362;2024-03-23T09:18:16;165559.75;;;12.89;40.42
41688;BME280;27371;42.686;23.362;2024-03-23T09:20:41;165518.28;;;12.73;40.30
41688;BME280;27371;42.686;23.362;2024-03-23T09:23:07;165582.50;;;12.98;40.29
41688;BME280;27371;42.686;23.362;2024-03-23T09:25:38;165641.38;;;13.20;40.59
41688;BME280;27371;42.686;23.362;2024-03-23T09:28:07;165660.19;;;13.27;40.30
41688;BME280;27371;42.686;23.362;2024-03-23T09:30:36;165684.28;;;13.36;40.08
41688;BME280;27371;42.686;23.362;2024-03-23T09:33:07;165618.63;;;13.11;39.66
41688;BME280;27371;42.686;23.362;2024-03-23T09:35:37;165563.81;;;12.90;40.75
41688;BME280;27371;42.686;23.362;2024-03-23T09:38:02;165546.38;;;12.84;41.57
41688;BME280;27371;42.686;23.362;2024-03-23T09:40:28;165546.38;;;12.84;41.23
41688;BME280;27371;42.686;23.362;2024-03-23T09:42:54;165518.28;;;12.73;41.46
41688;BME280;27371;42.686;23.362;2024-03-23T09:45:24;165542.41;;;12.82;42.26
41688;BME280;27371;42.686;23.362;2024-03-23T09:47:51;165567.78;;;12.92;42.22
41688;BME280;27371;42.686;23.362;2024-03-23T09:50:17;165482.16;;;12.59;42.24
41688;BME280;27371;42.686;23.362;2024-03-23T09:52:45;165475.44;;;12.57;42.42
41688;BME280;27371;42.686;23.362;2024-03-23T09:55:11;165545.03;;;12.83;42.40
41688;BME280;27371;42.686;23.362;2024-03-23T09:57:36;165632.03;;;13.17;41.89
41688;BME280;27371;42.686;23.362;2024-03-23T10:00:03;165646.75;;;13.22;41.78
41688;BME280;27371;42.686;23.362;2024-03-23T10:02:29;165695.00;;;13.41;40.23
41688;BME280;27371;42.686;23.362;2024-03-23T10:04:54;165728.44;;;13.53;39.44
41688;BME280;27371;42.686;23.362;2024-03-23T10:07:21;165783.34;;;13.74;39.59
41688;BME280;27371;42.686;23.362;2024-03-23T10:09:50;165765.97;;;13.68;38.61
41688;BME280;27371;42.686;23.362;2024-03-23T10:12:18;165824.88;;;13.90;38.70
41688;BME280;27371;42.686;23.362;2024-03-23T10:14:44;165774.00;;;13.71;37.71
41688;BME280;27371;42.686;23.362;2024-03-23T10:19:45;165890.47;;;14.15;37.26
41688;BME280;27371;42.686;23.362;2024-03-23T10:22:14;165905.19;;;14.21;36.82
41688;BME280;27371;42.686;23.362;2024-03-23T10:24:41;165901.16;;;14.19;36.90
41688;BME280;27371;42.686;23.362;2024-03-23T10:27:07;165911.91;;;14.23;35.78
41688;BME280;27371;42.686;23.362;2024-03-23T10:29:33;165903.88;;;14.20;37.06
41688;BME280;27371;42.686;23.362;2024-03-23T10:32:08;165859.69;;;14.03;37.50
41688;BME280;27371;42.686;23.362;2024-03-23T10:34:35;165818.16;;;13.88;37.29
41688;BME280;27371;42.686;23.362;2024-03-23T10:37:02;165756.56;;;13.64;38.01
41688;BME280;27371;42.686;23.362;2024-03-23T10:39:35;165735.13;;;13.56;37.67
41688;BME280;27371;42.686;23.362;2024-03-23T10:42:03;165632.03;;;13.17;38.00
41688;BME280;27371;42.686;23.362;2024-03-23T10:44:29;165646.75;;;13.22;37.49
41688;BME280;27371;42.686;23.362;2024-03-23T10:46:57;165629.38;;;13.15;37.37
41688;BME280;27371;42.686;23.362;2024-03-23T10:49:30;165633.34;;;13.17;37.17
41688;BME280;27371;42.686;23.362;2024-03-23T10:52:00;165695.00;;;13.41;37.19
41688;BME280;27371;42.686;23.362;2024-03-23T10:54:26;165755.22;;;13.64;37.43
41688;BME280;27371;42.686;23.362;2024-03-23T10:57:03;165788.72;;;13.76;37.34
41688;BME280;27371;42.686;23.362;2024-03-23T10:59:31;165830.22;;;13.92;36.23
41688;BME280;27371;42.686;23.362;2024-03-23T11:01:58;165848.94;;;13.99;36.72
41688;BME280;27371;42.686;23.362;2024-03-23T11:07:01;165903.88;;;14.20;35.34
41688;BME280;27371;42.686;23.362;2024-03-23T11:09:40;165854.31;;;14.01;36.02
41688;BME280;27371;42.686;23.362;2024-03-23T11:14:47;165850.28;;;14.00;34.70
41688;BME280;27371;42.686;23.362;2024-03-23T11:17:24;165919.94;;;14.26;35.38
41688;BME280;27371;42.686;23.362;2024-03-23T11:20:01;165957.41;;;14.41;35.22
41688;BME280;27371;42.686;23.362;2024-03-23T11:25:18;166048.56;;;14.76;34.04
41688;BME280;27371;42.686;23.362;2024-03-23T11:28:10;166047.25;;;14.75;33.55
41688;BME280;27371;42.686;23.362;2024-03-23T11:30:37;165980.19;;;14.49;33.89
41688;BME280;27371;42.686;23.362;2024-03-23T11:33:05;165844.97;;;13.98;34.28
41688;BME280;27371;42.686;23.362;2024-03-23T11:35:33;165767.28;;;13.68;35.47
41688;BME280;27371;42.686;23.362;2024-03-23T11:38:03;165733.81;;;13.55;35.95
41688;BME280;27371;42.686;23.362;2024-03-23T11:40:29;165804.75;;;13.82;36.39
41688;BME280;27371;42.686;23.362;2024-03-23T11:43:00;165952.03;;;14.39;34.56
41688;BME280;27371;42.686;23.362;2024-03-23T11:45:26;166029.78;;;14.68;33.82
41688;BME280;27371;42.686;23.362;2024-03-23T11:48:14;166065.97;;;14.82;33.43
41688;BME280;27371;42.686;23.362;2024-03-23T11:50:42;166071.34;;;14.84;33.11
41688;BME280;27371;42.686;23.362;2024-03-23T11:53:18;166120.91;;;15.03;33.49
41688;BME280;27371;42.686;23.362;2024-03-23T11:55:51;166150.38;;;15.14;33.19
41688;BME280;27371;42.686;23.362;2024-03-23T11:58:19;166178.53;;;15.25;32.95
41688;BME280;27371;42.686;23.362;2024-03-23T12:00:59;166169.16;;;15.22;32.80
41688;BME280;27371;42.686;23.362;2024-03-23T12:03:26;166234.81;;;15.47;32.39
41688;BME280;27371;42.686;23.362;2024-03-23T12:05:54;166206.66;;;15.36;32.47
41688;BME280;27371;42.686;23.362;2024-03-23T12:08:33;166194.59;;;15.31;32.58
41688;BME280;27371;42.686;23.362;2024-03-23T12:13:32;166225.41;;;15.43;32.55
41688;BME280;27371;42.686;23.362;2024-03-23T12:16:09;166224.06;;;15.43;32.24
41688;BME280;27371;42.686;23.362;2024-03-23T12:18:36;166250.88;;;15.53;32.25
41688;BME280;27371;42.686;23.362;2024-03-23T12:21:01;166264.28;;;15.58;32.23
41688;BME280;27371;42.686;23.362;2024-03-23T12:23:27;166311.22;;;15.76;32.11
41688;BME280;27371;42.686;23.362;2024-03-23T12:25:53;166372.91;;;15.99;31.33
41688;BME280;27371;42.686;23.362;2024-03-23T12:28:18;166402.41;;;16.11;31.17
41688;BME280;27371;42.686;23.362;2024-03-23T12:30:44;166417.16;;;16.16;30.79
41688;BME280;27371;42.686;23.362;2024-03-23T12:33:10;166433.22;;;16.22;30.98
41688;BME280;27371;42.686;23.362;2024-03-23T12:35:35;166474.78;;;16.38;29.42
41688;BME280;27371;42.686;23.362;2024-03-23T12:38:01;166271.00;;;15.61;29.82
41688;BME280;27371;42.686;23.362;2024-03-23T12:40:27;166383.63;;;16.03;29.44
41688;BME280;27371;42.686;23.362;2024-03-23T12:42:53;166334.00;;;15.85;29.58
41688;BME280;27371;42.686;23.362;2024-03-23T12:45:19;166336.72;;;15.86;29.27
41688;BME280;27371;42.686;23.362;2024-03-23T12:47:45;166384.94;;;16.04;29.32
41688;BME280;27371;42.686;23.362;2024-03-23T12:50:10;166418.47;;;16.17;28.97
41688;BME280;27371;42.686;23.362;2024-03-23T12:52:37;166452.00;;;16.30;29.19
41688;BME280;27371;42.686;23.362;2024-03-23T12:55:04;166474.78;;;16.38;28.86
41688;BME280;27371;42.686;23.362;2024-03-23T12:57:32;166458.72;;;16.32;28.76
41688;BME280;27371;42.686;23.362;2024-03-23T12:59:58;166445.31;;;16.27;28.90
41688;BME280;27371;42.686;23.362;2024-03-23T13:02:24;166422.53;;;16.18;29.21
41688;BME280;27371;42.686;23.362;2024-03-23T13:04:50;166418.47;;;16.17;28.95
41688;BME280;27371;42.686;23.362;2024-03-23T13:07:21;166429.16;;;16.21;28.44
41688;BME280;27371;42.686;23.362;2024-03-23T13:09:47;166447.97;;;16.28;28.44
41688;BME280;27371;42.686;23.362;2024-03-23T13:12:12;166473.47;;;16.38;29.13
41688;BME280;27371;42.686;23.362;2024-03-23T13:14:41;166502.97;;;16.49;29.11
41688;BME280;27371;42.686;23.362;2024-03-23T13:17:07;166561.94;;;16.72;29.21
41688;BME280;27371;42.686;23.362;2024-03-23T13:19:33;166600.88;;;16.86;28.94
41688;BME280;27371;42.686;23.362;2024-03-23T13:22:01;166582.13;;;16.79;28.16
41688;BME280;27371;42.686;23.362;2024-03-23T13:24:28;166540.50;;;16.63;28.07
41688;BME280;27371;42.686;23.362;2024-03-23T13:26:54;166592.84;;;16.83;28.06
41688;BME280;27371;42.686;23.362;2024-03-23T13:29:21;166635.75;;;17.00;28.02
41688;BME280;27371;42.686;23.362;2024-03-23T13:31:48;166670.63;;;17.13;28.17
41688;BME280;27371;42.686;23.362;2024-03-23T13:34:14;166710.84;;;17.28;28.14
41688;BME280;27371;42.686;23.362;2024-03-23T13:36:44;166735.03;;;17.38;27.66
41688;BME280;27371;42.686;23.362;2024-03-23T13:39:10;166764.53;;;17.49;26.59
41688;BME280;27371;42.686;23.362;2024-03-23T13:41:45;166669.31;;;17.12;27.86
41688;BME280;27371;42.686;23.362;2024-03-23T13:44:12;166549.88;;;16.67;29.03
41688;BME280;27371;42.686;23.362;2024-03-23T13:46:41;166469.41;;;16.36;29.19
41688;BME280;27371;42.686;23.362;2024-03-23T13:51:51;166435.88;;;16.23;29.64
41688;BME280;27371;42.686;23.362;2024-03-23T13:54:17;166458.72;;;16.32;29.25